sensor_id;sensor_type;location;lat;lon;timestamp;P1;durP1;ratioP1;P2;durP2;ratioP2
62880;SDS011;48969;49.934;8.596;2022-11-03T00:01:50;10.02;;;4.28;;
62880;SDS011;48969;49.934;8.596;2022-11-03T00:04:16;9.18;;;4.20;;
62880;SDS011;48969;49.934;8.596;2022-11-03T00:06:41;7.15;;;4.13;;
62880;SDS011;48969;49.934;8.596;2022-11-03T00:09:08;9.10;;;3.88;;
62880;SDS011;48969;49.934;8.596;2022-11-03T00:11:34;7.60;;;3.70;;
62880;SDS011;48969;49.934;8.596;2022-11-03T00:13:59;7.28;;;3.70;;
62880;SDS011;48969;49.934;8.596;2022-11-03T00:16:24;6.68;;;3.72;;
62880;SDS011;48969;49.934;8.596;2022-11-03T00:18:50;9.02;;;4.05;;
62880;SDS011;48969;49.934;8.596;2022-11-03T00:21:15;8.48;;;4.00;;
62880;SDS011;48969;49.934;8.596;2022-11-03T00:23:41;8.10;;;4.30;;
62880;SDS011;48969;49.934;8.596;2022-11-03T00:28:32;8.95;;;4.10;;
62880;SDS011;48969;49.934;8.596;2022-11-03T00:30:58;10.50;;;3.67;;
62880;SDS011;48969;49.934;8.596;2022-11-03T00:33:24;10.25;;;4.38;;
62880;SDS011;48969;49.934;8.596;2022-11-03T00:35:55;8.95;;;4.20;;
62880;SDS011;48969;49.934;8.596;2022-11-03T00:38:20;8.63;;;4.40;;
62880;SDS011;48969;49.934;8.596;2022-11-03T00:40:51;9.30;;;4.60;;
62880;SDS011;48969;49.934;8.596;2022-11-03T00:43:16;9.02;;;4.10;;
62880;SDS011;48969;49.934;8.596;2022-11-03T00:45:41;7.90;;;3.83;;
62880;SDS011;48969;49.934;8.596;2022-11-03T00:48:07;6.93;;;3.72;;
62880;SDS011;48969;49.934;8.596;2022-11-03T00:50:50;10.55;;;4.25;;
62880;SDS011;48969;49.934;8.596;2022-11-03T00:53:16;8.73;;;3.80;;
62880;SDS011;48969;49.934;8.596;2022-11-03T00:55:41;6.82;;;3.83;;
62880;SDS011;48969;49.934;8.596;2022-11-03T00:58:06;7.88;;;4.40;;
62880;SDS011;48969;49.934;8.596;2022-11-03T01:00:31;7.68;;;4.20;;
62880;SDS011;48969;49.934;8.596;2022-11-03T01:02:56;8.40;;;4.10;;
62880;SDS011;48969;49.934;8.596;2022-11-03T01:05:21;8.60;;;4.25;;
62880;SDS011;48969;49.934;8.596;2022-11-03T01:08:05;9.60;;;4.13;;
62880;SDS011;48969;49.934;8.596;2022-11-03T01:10:34;9.77;;;3.75;;
62880;SDS011;48969;49.934;8.596;2022-11-03T01:12:59;9.52;;;4.28;;
62880;SDS011;48969;49.934;8.596;2022-11-03T01:15:26;7.50;;;3.80;;
62880;SDS011;48969;49.934;8.596;2022-11-03T01:17:51;6.35;;;3.80;;
62880;SDS011;48969;49.934;8.596;2022-11-03T01:20:16;9.95;;;4.20;;
62880;SDS011;48969;49.934;8.596;2022-11-03T01:22:41;9.23;;;3.78;;
62880;SDS011;48969;49.934;8.596;2022-11-03T01:25:06;7.82;;;1.38;;
62880;SDS011;48969;49.934;8.596;2022-11-03T01:27:33;8.40;;;4.38;;
62880;SDS011;48969;49.934;8.596;2022-11-03T01:29:58;8.10;;;4.28;;
62880;SDS011;48969;49.934;8.596;2022-11-03T01:32:25;7.47;;;3.70;;
62880;SDS011;48969;49.934;8.596;2022-11-03T01:34:51;11.48;;;4.45;;
62880;SDS011;48969;49.934;8.596;2022-11-03T01:37:16;6.90;;;4.00;;
62880;SDS011;48969;49.934;8.596;2022-11-03T01:39:41;7.25;;;3.65;;
62880;SDS011;48969;49.934;8.596;2022-11-03T01:42:08;8.27;;;4.07;;
62880;SDS011;48969;49.934;8.596;2022-11-03T01:44:35;7.85;;;4.05;;
62880;SDS011;48969;49.934;8.596;2022-11-03T01:49:34;10.45;;;4.68;;
62880;SDS011;48969;49.934;8.596;2022-11-03T01:52:04;8.15;;;3.60;;
62880;SDS011;48969;49.934;8.596;2022-11-03T01:54:32;8.95;;;3.97;;
62880;SDS011;48969;49.934;8.596;2022-11-03T01:56:58;9.05;;;3.97;;
62880;SDS011;48969;49.934;8.596;2022-11-03T01:59:23;8.43;;;3.97;;
62880;SDS011;48969;49.934;8.596;2022-11-03T02:01:49;8.60;;;3.78;;
62880;SDS011;48969;49.934;8.596;2022-11-03T02:04:19;9.48;;;3.80;;
62880;SDS011;48969;49.934;8.596;2022-11-03T02:06:46;8.43;;;3.50;;
62880;SDS011;48969;49.934;8.596;2022-11-03T02:09:13;9.55;;;3.90;;
62880;SDS011;48969;49.934;8.596;2022-11-03T02:11:38;7.93;;;3.70;;
62880;SDS011;48969;49.934;8.596;2022-11-03T02:14:22;8.00;;;4.13;;
62880;SDS011;48969;49.934;8.596;2022-11-03T02:16:48;7.75;;;4.10;;
62880;SDS011;48969;49.934;8.596;2022-11-03T02:19:19;7.07;;;3.92;;
62880;SDS011;48969;49.934;8.596;2022-11-03T02:24:14;10.40;;;4.15;;
62880;SDS011;48969;49.934;8.596;2022-11-03T02:26:42;6.72;;;3.45;;
62880;SDS011;48969;49.934;8.596;2022-11-03T02:29:11;8.27;;;3.50;;
62880;SDS011;48969;49.934;8.596;2022-11-03T02:31:38;9.40;;;3.70;;
62880;SDS011;48969;49.934;8.596;2022-11-03T02:36:50;8.10;;;4.28;;
62880;SDS011;48969;49.934;8.596;2022-11-03T02:41:42;9.18;;;3.78;;
62880;SDS011;48969;49.934;8.596;2022-11-03T02:44:10;8.05;;;3.70;;
62880;SDS011;48969;49.934;8.596;2022-11-03T02:46:36;11.93;;;3.80;;
62880;SDS011;48969;49.934;8.596;2022-11-03T02:49:02;8.20;;;3.65;;
62880;SDS011;48969;49.934;8.596;2022-11-03T02:51:27;8.05;;;3.63;;
62880;SDS011;48969;49.934;8.596;2022-11-03T02:54:01;6.90;;;3.88;;
62880;SDS011;48969;49.934;8.596;2022-11-03T02:56:27;8.95;;;4.20;;
62880;SDS011;48969;49.934;8.596;2022-11-03T02:58:58;8.65;;;4.35;;
62880;SDS011;48969;49.934;8.596;2022-11-03T03:03:54;11.68;;;5.30;;
62880;SDS011;48969;49.934;8.596;2022-11-03T03:06:22;9.85;;;4.20;;
62880;SDS011;48969;49.934;8.596;2022-11-03T03:08:50;9.02;;;4.32;;
62880;SDS011;48969;49.934;8.596;2022-11-03T03:11:16;9.52;;;4.32;;
62880;SDS011;48969;49.934;8.596;2022-11-03T03:14:00;8.45;;;4.55;;
62880;SDS011;48969;49.934;8.596;2022-11-03T03:16:25;7.72;;;3.97;;
62880;SDS011;48969;49.934;8.596;2022-11-03T03:19:00;10.95;;;5.28;;
62880;SDS011;48969;49.934;8.596;2022-11-03T03:21:31;8.27;;;4.03;;
62880;SDS011;48969;49.934;8.596;2022-11-03T03:24:00;6.93;;;4.22;;
62880;SDS011;48969;49.934;8.596;2022-11-03T03:26:31;8.38;;;4.55;;
62880;SDS011;48969;49.934;8.596;2022-11-03T03:28:58;8.18;;;4.65;;
62880;SDS011;48969;49.934;8.596;2022-11-03T03:31:25;3.50;;;1.50;;
62880;SDS011;48969;49.934;8.596;2022-11-03T03:33:51;2.65;;;2.25;;
62880;SDS011;48969;49.934;8.596;2022-11-03T03:36:17;10.20;;;4.88;;
62880;SDS011;48969;49.934;8.596;2022-11-03T03:38:45;9.55;;;5.22;;
62880;SDS011;48969;49.934;8.596;2022-11-03T03:41:12;9.98;;;5.22;;
62880;SDS011;48969;49.934;8.596;2022-11-03T03:43:45;10.25;;;5.07;;
62880;SDS011;48969;49.934;8.596;2022-11-03T03:46:11;11.02;;;4.35;;
62880;SDS011;48969;49.934;8.596;2022-11-03T03:48:37;9.75;;;4.53;;
62880;SDS011;48969;49.934;8.596;2022-11-03T03:51:03;9.50;;;4.53;;
62880;SDS011;48969;49.934;8.596;2022-11-03T03:53:28;10.15;;;4.20;;
62880;SDS011;48969;49.934;8.596;2022-11-03T03:55:54;7.97;;;4.03;;
62880;SDS011;48969;49.934;8.596;2022-11-03T03:58:19;7.15;;;4.05;;
62880;SDS011;48969;49.934;8.596;2022-11-03T04:00:45;2.92;;;1.45;;
62880;SDS011;48969;49.934;8.596;2022-11-03T04:03:12;8.07;;;4.43;;
62880;SDS011;48969;49.934;8.596;2022-11-03T04:05:38;11.77;;;4.03;;
62880;SDS011;48969;49.934;8.596;2022-11-03T04:08:03;7.42;;;3.40;;
62880;SDS011;48969;49.934;8.596;2022-11-03T04:10:28;10.27;;;3.85;;
62880;SDS011;48969;49.934;8.596;2022-11-03T04:12:54;10.85;;;4.30;;
62880;SDS011;48969;49.934;8.596;2022-11-03T04:15:38;8.05;;;3.95;;
62880;SDS011;48969;49.934;8.596;2022-11-03T04:18:16;7.82;;;4.00;;
62880;SDS011;48969;49.934;8.596;2022-11-03T04:21:00;7.43;;;3.92;;
62880;SDS011;48969;49.934;8.596;2022-11-03T04:23:44;7.55;;;4.30;;
62880;SDS011;48969;49.934;8.596;2022-11-03T04:26:10;1.75;;;0.88;;
62880;SDS011;48969;49.934;8.596;2022-11-03T04:28:36;8.40;;;4.00;;
62880;SDS011;48969;49.934;8.596;2022-11-03T04:31:02;6.63;;;4.00;;
62880;SDS011;48969;49.934;8.596;2022-11-03T04:33:27;8.48;;;3.53;;
62880;SDS011;48969;49.934;8.596;2022-11-03T04:35:53;2.53;;;1.30;;
62880;SDS011;48969;49.934;8.596;2022-11-03T04:38:22;7.25;;;3.80;;
62880;SDS011;48969;49.934;8.596;2022-11-03T04:40:51;8.00;;;4.00;;
62880;SDS011;48969;49.934;8.596;2022-11-03T04:43:18;7.03;;;3.60;;
62880;SDS011;48969;49.934;8.596;2022-11-03T04:45:44;8.38;;;3.65;;
62880;SDS011;48969;49.934;8.596;2022-11-03T04:48:15;6.38;;;3.70;;
62880;SDS011;48969;49.934;8.596;2022-11-03T04:50:42;3.10;;;1.65;;
62880;SDS011;48969;49.934;8.596;2022-11-03T04:53:12;6.82;;;3.97;;
62880;SDS011;48969;49.934;8.596;2022-11-03T04:55:38;8.90;;;4.15;;
62880;SDS011;48969;49.934;8.596;2022-11-03T04:58:08;9.77;;;4.45;;
62880;SDS011;48969;49.934;8.596;2022-11-03T05:00:34;8.40;;;3.83;;
62880;SDS011;48969;49.934;8.596;2022-11-03T05:03:00;1.17;;;1.08;;
62880;SDS011;48969;49.934;8.596;2022-11-03T05:05:28;3.63;;;1.58;;
62880;SDS011;48969;49.934;8.596;2022-11-03T05:07:54;8.05;;;3.83;;
62880;SDS011;48969;49.934;8.596;2022-11-03T05:10:20;7.22;;;3.80;;
62880;SDS011;48969;49.934;8.596;2022-11-03T05:12:46;7.90;;;3.97;;
62880;SDS011;48969;49.934;8.596;2022-11-03T05:17:49;7.72;;;3.90;;
62880;SDS011;48969;49.934;8.596;2022-11-03T05:22:52;11.30;;;4.95;;
62880;SDS011;48969;49.934;8.596;2022-11-03T05:28:01;8.07;;;4.00;;
62880;SDS011;48969;49.934;8.596;2022-11-03T05:30:27;1.25;;;1.13;;
62880;SDS011;48969;49.934;8.596;2022-11-03T05:32:52;8.00;;;4.07;;
62880;SDS011;48969;49.934;8.596;2022-11-03T05:35:21;9.02;;;4.20;;
62880;SDS011;48969;49.934;8.596;2022-11-03T05:37:47;6.07;;;4.20;;
62880;SDS011;48969;49.934;8.596;2022-11-03T05:40:15;6.47;;;4.07;;
62880;SDS011;48969;49.934;8.596;2022-11-03T05:42:44;8.50;;;4.78;;
62880;SDS011;48969;49.934;8.596;2022-11-03T05:47:46;6.97;;;4.18;;
62880;SDS011;48969;49.934;8.596;2022-11-03T05:50:14;11.32;;;5.68;;
62880;SDS011;48969;49.934;8.596;2022-11-03T05:52:40;6.63;;;3.72;;
62880;SDS011;48969;49.934;8.596;2022-11-03T05:55:10;7.85;;;3.97;;
62880;SDS011;48969;49.934;8.596;2022-11-03T06:00:06;7.57;;;4.00;;
62880;SDS011;48969;49.934;8.596;2022-11-03T06:02:35;7.68;;;3.38;;
62880;SDS011;48969;49.934;8.596;2022-11-03T06:05:02;7.25;;;3.22;;
62880;SDS011;48969;49.934;8.596;2022-11-03T06:07:28;8.90;;;3.75;;
62880;SDS011;48969;49.934;8.596;2022-11-03T06:09:54;0.57;;;0.43;;
62880;SDS011;48969;49.934;8.596;2022-11-03T06:12:19;6.53;;;3.75;;
62880;SDS011;48969;49.934;8.596;2022-11-03T06:14:45;7.15;;;3.47;;
62880;SDS011;48969;49.934;8.596;2022-11-03T06:17:23;9.27;;;3.60;;
62880;SDS011;48969;49.934;8.596;2022-11-03T06:19:50;9.93;;;4.72;;
62880;SDS011;48969;49.934;8.596;2022-11-03T06:22:20;9.45;;;5.07;;
62880;SDS011;48969;49.934;8.596;2022-11-03T06:24:46;1.98;;;1.10;;
62880;SDS011;48969;49.934;8.596;2022-11-03T06:27:13;1.25;;;1.10;;
62880;SDS011;48969;49.934;8.596;2022-11-03T06:29:38;1.65;;;1.15;;
62880;SDS011;48969;49.934;8.596;2022-11-03T06:32:03;6.03;;;4.07;;
62880;SDS011;48969;49.934;8.596;2022-11-03T06:37:00;8.95;;;4.82;;
62880;SDS011;48969;49.934;8.596;2022-11-03T06:39:29;10.43;;;5.28;;
62880;SDS011;48969;49.934;8.596;2022-11-03T06:41:54;3.30;;;1.60;;
62880;SDS011;48969;49.934;8.596;2022-11-03T06:44:23;0.68;;;0.68;;
62880;SDS011;48969;49.934;8.596;2022-11-03T06:46:49;6.85;;;4.53;;
62880;SDS011;48969;49.934;8.596;2022-11-03T06:49:26;8.32;;;4.28;;
62880;SDS011;48969;49.934;8.596;2022-11-03T06:51:52;7.13;;;4.20;;
62880;SDS011;48969;49.934;8.596;2022-11-03T06:54:18;7.85;;;4.72;;
62880;SDS011;48969;49.934;8.596;2022-11-03T06:56:43;7.45;;;4.53;;
62880;SDS011;48969;49.934;8.596;2022-11-03T06:59:08;11.30;;;4.88;;
62880;SDS011;48969;49.934;8.596;2022-11-03T07:01:35;3.30;;;1.25;;
62880;SDS011;48969;49.934;8.596;2022-11-03T07:04:01;9.32;;;4.68;;
62880;SDS011;48969;49.934;8.596;2022-11-03T07:06:33;8.52;;;4.18;;
62880;SDS011;48969;49.934;8.596;2022-11-03T07:09:00;8.02;;;4.47;;
62880;SDS011;48969;49.934;8.596;2022-11-03T07:11:27;9.25;;;4.25;;
62880;SDS011;48969;49.934;8.596;2022-11-03T07:13:58;24.77;;;6.80;;
62880;SDS011;48969;49.934;8.596;2022-11-03T07:16:27;13.15;;;4.80;;
62880;SDS011;48969;49.934;8.596;2022-11-03T07:18:53;11.45;;;5.30;;
62880;SDS011;48969;49.934;8.596;2022-11-03T07:21:24;9.75;;;4.75;;
62880;SDS011;48969;49.934;8.596;2022-11-03T07:23:52;4.05;;;1.55;;
62880;SDS011;48969;49.934;8.596;2022-11-03T07:26:18;4.97;;;1.75;;
62880;SDS011;48969;49.934;8.596;2022-11-03T07:28:43;6.97;;;4.18;;
62880;SDS011;48969;49.934;8.596;2022-11-03T07:31:13;7.68;;;4.60;;
62880;SDS011;48969;49.934;8.596;2022-11-03T07:33:40;9.18;;;4.82;;
62880;SDS011;48969;49.934;8.596;2022-11-03T07:36:05;4.28;;;2.17;;
62880;SDS011;48969;49.934;8.596;2022-11-03T07:38:30;8.15;;;4.75;;
62880;SDS011;48969;49.934;8.596;2022-11-03T07:40:56;8.75;;;4.53;;
62880;SDS011;48969;49.934;8.596;2022-11-03T07:43:40;8.70;;;4.70;;
62880;SDS011;48969;49.934;8.596;2022-11-03T07:46:07;7.72;;;4.78;;
62880;SDS011;48969;49.934;8.596;2022-11-03T07:53:49;10.40;;;5.95;;
62880;SDS011;48969;49.934;8.596;2022-11-03T07:56:24;10.95;;;5.65;;
62880;SDS011;48969;49.934;8.596;2022-11-03T07:59:33;11.63;;;5.55;;
62880;SDS011;48969;49.934;8.596;2022-11-03T08:04:07;11.60;;;5.57;;
62880;SDS011;48969;49.934;8.596;2022-11-03T08:06:34;12.82;;;6.38;;
62880;SDS011;48969;49.934;8.596;2022-11-03T08:08:59;10.40;;;5.23;;
62880;SDS011;48969;49.934;8.596;2022-11-03T08:11:24;8.23;;;5.20;;
62880;SDS011;48969;49.934;8.596;2022-11-03T08:13:50;9.25;;;4.90;;
62880;SDS011;48969;49.934;8.596;2022-11-03T08:16:15;9.90;;;5.40;;
62880;SDS011;48969;49.934;8.596;2022-11-03T08:18:40;11.15;;;5.05;;
62880;SDS011;48969;49.934;8.596;2022-11-03T08:21:06;11.73;;;4.30;;
62880;SDS011;48969;49.934;8.596;2022-11-03T08:23:31;9.95;;;4.80;;
62880;SDS011;48969;49.934;8.596;2022-11-03T08:25:56;8.52;;;4.70;;
62880;SDS011;48969;49.934;8.596;2022-11-03T08:28:21;8.73;;;4.50;;
62880;SDS011;48969;49.934;8.596;2022-11-03T08:30:47;10.57;;;4.43;;
62880;SDS011;48969;49.934;8.596;2022-11-03T08:33:12;10.32;;;4.65;;
62880;SDS011;48969;49.934;8.596;2022-11-03T08:35:37;9.75;;;4.38;;
62880;SDS011;48969;49.934;8.596;2022-11-03T08:38:02;10.15;;;4.18;;
62880;SDS011;48969;49.934;8.596;2022-11-03T08:40:27;10.52;;;5.43;;
62880;SDS011;48969;49.934;8.596;2022-11-03T08:42:53;8.75;;;4.50;;
62880;SDS011;48969;49.934;8.596;2022-11-03T08:45:18;7.65;;;3.80;;
62880;SDS011;48969;49.934;8.596;2022-11-03T08:47:43;8.33;;;3.97;;
62880;SDS011;48969;49.934;8.596;2022-11-03T08:50:08;9.13;;;4.17;;
62880;SDS011;48969;49.934;8.596;2022-11-03T08:52:33;9.27;;;4.63;;
62880;SDS011;48969;49.934;8.596;2022-11-03T08:54:58;10.23;;;5.22;;
62880;SDS011;48969;49.934;8.596;2022-11-03T08:57:24;8.95;;;5.35;;
62880;SDS011;48969;49.934;8.596;2022-11-03T08:59:49;9.63;;;4.03;;
62880;SDS011;48969;49.934;8.596;2022-11-03T09:02:16;7.72;;;4.25;;
62880;SDS011;48969;49.934;8.596;2022-11-03T09:04:41;10.55;;;4.55;;
62880;SDS011;48969;49.934;8.596;2022-11-03T09:07:06;10.15;;;4.80;;
62880;SDS011;48969;49.934;8.596;2022-11-03T09:09:32;8.20;;;4.28;;
62880;SDS011;48969;49.934;8.596;2022-11-03T09:11:57;8.52;;;5.00;;
62880;SDS011;48969;49.934;8.596;2022-11-03T09:14:22;9.57;;;5.20;;
62880;SDS011;48969;49.934;8.596;2022-11-03T09:16:47;12.05;;;5.28;;
62880;SDS011;48969;49.934;8.596;2022-11-03T09:19:12;10.40;;;5.13;;
62880;SDS011;48969;49.934;8.596;2022-11-03T09:21:37;9.95;;;4.93;;
62880;SDS011;48969;49.934;8.596;2022-11-03T09:24:03;13.13;;;5.63;;
62880;SDS011;48969;49.934;8.596;2022-11-03T09:26:28;11.90;;;5.70;;
62880;SDS011;48969;49.934;8.596;2022-11-03T09:28:53;10.70;;;5.72;;
62880;SDS011;48969;49.934;8.596;2022-11-03T09:31:19;10.88;;;6.18;;
62880;SDS011;48969;49.934;8.596;2022-11-03T09:33:44;12.07;;;6.10;;
62880;SDS011;48969;49.934;8.596;2022-11-03T09:36:10;9.63;;;5.30;;
62880;SDS011;48969;49.934;8.596;2022-11-03T09:38:35;15.05;;;6.80;;
62880;SDS011;48969;49.934;8.596;2022-11-03T09:41:00;11.17;;;5.70;;
62880;SDS011;48969;49.934;8.596;2022-11-03T09:43:26;9.93;;;5.93;;
62880;SDS011;48969;49.934;8.596;2022-11-03T09:45:52;11.60;;;7.25;;
62880;SDS011;48969;49.934;8.596;2022-11-03T09:48:17;13.07;;;6.63;;
62880;SDS011;48969;49.934;8.596;2022-11-03T09:50:42;11.52;;;6.70;;
62880;SDS011;48969;49.934;8.596;2022-11-03T09:53:09;13.18;;;6.68;;
62880;SDS011;48969;49.934;8.596;2022-11-03T09:55:35;10.00;;;6.30;;
62880;SDS011;48969;49.934;8.596;2022-11-03T09:58:01;12.35;;;6.28;;
62880;SDS011;48969;49.934;8.596;2022-11-03T10:00:32;12.68;;;6.93;;
62880;SDS011;48969;49.934;8.596;2022-11-03T10:02:58;12.65;;;5.75;;
62880;SDS011;48969;49.934;8.596;2022-11-03T10:05:24;12.23;;;5.88;;
62880;SDS011;48969;49.934;8.596;2022-11-03T10:07:50;8.20;;;5.85;;
62880;SDS011;48969;49.934;8.596;2022-11-03T10:10:17;11.57;;;5.45;;
62880;SDS011;48969;49.934;8.596;2022-11-03T10:12:43;12.93;;;5.75;;
62880;SDS011;48969;49.934;8.596;2022-11-03T10:15:12;8.82;;;5.22;;
62880;SDS011;48969;49.934;8.596;2022-11-03T10:17:37;11.50;;;5.63;;
62880;SDS011;48969;49.934;8.596;2022-11-03T10:20:04;9.70;;;5.00;;
62880;SDS011;48969;49.934;8.596;2022-11-03T10:22:30;8.55;;;4.85;;
62880;SDS011;48969;49.934;8.596;2022-11-03T10:27:39;12.25;;;5.50;;
62880;SDS011;48969;49.934;8.596;2022-11-03T10:30:05;9.13;;;5.20;;
62880;SDS011;48969;49.934;8.596;2022-11-03T10:32:31;11.15;;;5.43;;
62880;SDS011;48969;49.934;8.596;2022-11-03T10:34:58;11.23;;;4.90;;
62880;SDS011;48969;49.934;8.596;2022-11-03T10:37:24;10.52;;;5.60;;
62880;SDS011;48969;49.934;8.596;2022-11-03T10:39:53;10.75;;;5.20;;
62880;SDS011;48969;49.934;8.596;2022-11-03T10:42:23;10.00;;;5.18;;
62880;SDS011;48969;49.934;8.596;2022-11-03T10:44:50;10.57;;;5.45;;
62880;SDS011;48969;49.934;8.596;2022-11-03T10:49:46;12.13;;;6.05;;
62880;SDS011;48969;49.934;8.596;2022-11-03T10:52:17;12.97;;;6.50;;
62880;SDS011;48969;49.934;8.596;2022-11-03T10:54:43;11.35;;;6.85;;
62880;SDS011;48969;49.934;8.596;2022-11-03T10:57:08;13.23;;;7.20;;
62880;SDS011;48969;49.934;8.596;2022-11-03T10:59:35;11.07;;;6.38;;
62880;SDS011;48969;49.934;8.596;2022-11-03T11:02:01;11.38;;;6.47;;
62880;SDS011;48969;49.934;8.596;2022-11-03T11:04:27;11.43;;;6.85;;
62880;SDS011;48969;49.934;8.596;2022-11-03T11:06:53;13.23;;;6.78;;
62880;SDS011;48969;49.934;8.596;2022-11-03T11:09:25;13.45;;;6.82;;
62880;SDS011;48969;49.934;8.596;2022-11-03T11:11:59;13.13;;;7.88;;
62880;SDS011;48969;49.934;8.596;2022-11-03T11:16:53;10.90;;;7.57;;
62880;SDS011;48969;49.934;8.596;2022-11-03T11:19:19;13.80;;;6.90;;
62880;SDS011;48969;49.934;8.596;2022-11-03T11:24:11;12.95;;;6.88;;
62880;SDS011;48969;49.934;8.596;2022-11-03T11:26:37;11.82;;;6.97;;
62880;SDS011;48969;49.934;8.596;2022-11-03T11:31:32;23.17;;;9.30;;
62880;SDS011;48969;49.934;8.596;2022-11-03T11:49:47;12.70;;;7.57;;
62880;SDS011;48969;49.934;8.596;2022-11-03T11:52:13;11.30;;;7.53;;
62880;SDS011;48969;49.934;8.596;2022-11-03T11:54:40;12.45;;;7.57;;
62880;SDS011;48969;49.934;8.596;2022-11-03T11:57:10;12.73;;;7.32;;
62880;SDS011;48969;49.934;8.596;2022-11-03T11:59:41;14.38;;;7.30;;
62880;SDS011;48969;49.934;8.596;2022-11-03T12:02:10;11.68;;;6.95;;
62880;SDS011;48969;49.934;8.596;2022-11-03T12:04:44;10.48;;;7.38;;
62880;SDS011;48969;49.934;8.596;2022-11-03T12:07:12;12.65;;;7.53;;
62880;SDS011;48969;49.934;8.596;2022-11-03T12:09:38;11.60;;;6.63;;
62880;SDS011;48969;49.934;8.596;2022-11-03T12:12:04;12.98;;;6.63;;
62880;SDS011;48969;49.934;8.596;2022-11-03T12:16:58;10.25;;;6.35;;
62880;SDS011;48969;49.934;8.596;2022-11-03T12:19:48;9.30;;;6.83;;
62880;SDS011;48969;49.934;8.596;2022-11-03T12:24:49;11.90;;;7.32;;
62880;SDS011;48969;49.934;8.596;2022-11-03T12:27:19;14.07;;;7.63;;
62880;SDS011;48969;49.934;8.596;2022-11-03T12:30:04;11.65;;;7.20;;
62880;SDS011;48969;49.934;8.596;2022-11-03T12:32:30;10.73;;;7.22;;
62880;SDS011;48969;49.934;8.596;2022-11-03T12:34:55;10.93;;;6.97;;
62880;SDS011;48969;49.934;8.596;2022-11-03T12:37:22;10.77;;;6.40;;
62880;SDS011;48969;49.934;8.596;2022-11-03T12:39:47;13.68;;;7.45;;
62880;SDS011;48969;49.934;8.596;2022-11-03T12:42:12;11.25;;;7.20;;
62880;SDS011;48969;49.934;8.596;2022-11-03T12:44:37;10.27;;;7.27;;
62880;SDS011;48969;49.934;8.596;2022-11-03T12:47:02;11.90;;;7.17;;
62880;SDS011;48969;49.934;8.596;2022-11-03T12:49:28;11.15;;;7.30;;
62880;SDS011;48969;49.934;8.596;2022-11-03T12:51:53;11.32;;;7.80;;
62880;SDS011;48969;49.934;8.596;2022-11-03T12:54:19;10.10;;;7.00;;
62880;SDS011;48969;49.934;8.596;2022-11-03T12:56:45;10.45;;;7.00;;
62880;SDS011;48969;49.934;8.596;2022-11-03T12:59:10;11.30;;;7.53;;
62880;SDS011;48969;49.934;8.596;2022-11-03T13:01:36;11.53;;;7.40;;
62880;SDS011;48969;49.934;8.596;2022-11-03T13:04:01;14.73;;;7.90;;
62880;SDS011;48969;49.934;8.596;2022-11-03T13:06:29;11.38;;;7.38;;
62880;SDS011;48969;49.934;8.596;2022-11-03T13:08:54;13.20;;;7.30;;
62880;SDS011;48969;49.934;8.596;2022-11-03T13:11:19;13.50;;;7.57;;
62880;SDS011;48969;49.934;8.596;2022-11-03T13:14:03;13.15;;;8.73;;
62880;SDS011;48969;49.934;8.596;2022-11-03T13:16:31;15.48;;;9.90;;
62880;SDS011;48969;49.934;8.596;2022-11-03T13:18:56;17.33;;;8.57;;
62880;SDS011;48969;49.934;8.596;2022-11-03T13:21:21;12.73;;;8.50;;
62880;SDS011;48969;49.934;8.596;2022-11-03T13:23:46;12.73;;;7.73;;
62880;SDS011;48969;49.934;8.596;2022-11-03T13:26:12;11.43;;;7.77;;
62880;SDS011;48969;49.934;8.596;2022-11-03T13:28:37;15.68;;;11.00;;
62880;SDS011;48969;49.934;8.596;2022-11-03T13:31:02;18.92;;;12.32;;
62880;SDS011;48969;49.934;8.596;2022-11-03T13:33:28;14.23;;;8.30;;
62880;SDS011;48969;49.934;8.596;2022-11-03T13:35:54;14.52;;;7.40;;
62880;SDS011;48969;49.934;8.596;2022-11-03T13:38:19;13.98;;;7.47;;
62880;SDS011;48969;49.934;8.596;2022-11-03T13:40:45;11.43;;;6.70;;
62880;SDS011;48969;49.934;8.596;2022-11-03T13:43:10;9.90;;;6.68;;
62880;SDS011;48969;49.934;8.596;2022-11-03T13:45:36;10.68;;;6.13;;
62880;SDS011;48969;49.934;8.596;2022-11-03T13:48:01;11.88;;;6.30;;
62880;SDS011;48969;49.934;8.596;2022-11-03T13:50:27;15.73;;;7.10;;
62880;SDS011;48969;49.934;8.596;2022-11-03T13:52:52;12.57;;;6.80;;
62880;SDS011;48969;49.934;8.596;2022-11-03T13:55:17;11.30;;;6.72;;
62880;SDS011;48969;49.934;8.596;2022-11-03T13:57:42;9.82;;;6.70;;
62880;SDS011;48969;49.934;8.596;2022-11-03T14:00:09;12.82;;;6.55;;
62880;SDS011;48969;49.934;8.596;2022-11-03T14:02:36;13.25;;;6.95;;
62880;SDS011;48969;49.934;8.596;2022-11-03T14:05:01;14.20;;;7.38;;
62880;SDS011;48969;49.934;8.596;2022-11-03T14:07:26;13.37;;;6.70;;
62880;SDS011;48969;49.934;8.596;2022-11-03T14:09:51;14.80;;;6.10;;
62880;SDS011;48969;49.934;8.596;2022-11-03T14:12:16;11.63;;;6.50;;
62880;SDS011;48969;49.934;8.596;2022-11-03T14:17:21;11.27;;;6.77;;
62880;SDS011;48969;49.934;8.596;2022-11-03T14:19:48;14.38;;;7.00;;
62880;SDS011;48969;49.934;8.596;2022-11-03T14:22:13;9.98;;;7.10;;
62880;SDS011;48969;49.934;8.596;2022-11-03T14:24:39;11.70;;;6.65;;
62880;SDS011;48969;49.934;8.596;2022-11-03T14:27:04;13.07;;;6.40;;
62880;SDS011;48969;49.934;8.596;2022-11-03T14:29:29;13.75;;;6.38;;
62880;SDS011;48969;49.934;8.596;2022-11-03T14:31:54;11.87;;;5.70;;
62880;SDS011;48969;49.934;8.596;2022-11-03T14:34:19;14.80;;;6.30;;
62880;SDS011;48969;49.934;8.596;2022-11-03T14:36:44;9.97;;;6.27;;
62880;SDS011;48969;49.934;8.596;2022-11-03T14:39:10;12.65;;;6.32;;
62880;SDS011;48969;49.934;8.596;2022-11-03T14:41:35;13.70;;;5.82;;
62880;SDS011;48969;49.934;8.596;2022-11-03T14:44:19;14.45;;;5.80;;
62880;SDS011;48969;49.934;8.596;2022-11-03T14:46:44;11.60;;;6.03;;
62880;SDS011;48969;49.934;8.596;2022-11-03T14:49:09;11.40;;;6.23;;
62880;SDS011;48969;49.934;8.596;2022-11-03T14:51:34;16.67;;;6.40;;
62880;SDS011;48969;49.934;8.596;2022-11-03T14:53:59;12.88;;;5.82;;
62880;SDS011;48969;49.934;8.596;2022-11-03T14:56:25;11.03;;;5.80;;
62880;SDS011;48969;49.934;8.596;2022-11-03T14:58:51;9.68;;;6.05;;
62880;SDS011;48969;49.934;8.596;2022-11-03T15:01:16;9.85;;;5.22;;
62880;SDS011;48969;49.934;8.596;2022-11-03T15:03:42;9.18;;;5.63;;
62880;SDS011;48969;49.934;8.596;2022-11-03T15:06:07;12.05;;;5.90;;
62880;SDS011;48969;49.934;8.596;2022-11-03T15:08:32;10.95;;;5.32;;
62880;SDS011;48969;49.934;8.596;2022-11-03T15:10:58;12.82;;;6.25;;
62880;SDS011;48969;49.934;8.596;2022-11-03T15:13:23;11.20;;;5.38;;
62880;SDS011;48969;49.934;8.596;2022-11-03T15:15:48;12.75;;;6.00;;
62880;SDS011;48969;49.934;8.596;2022-11-03T15:18:13;12.45;;;5.80;;
62880;SDS011;48969;49.934;8.596;2022-11-03T15:20:38;14.20;;;5.87;;
62880;SDS011;48969;49.934;8.596;2022-11-03T15:23:04;10.82;;;5.72;;
62880;SDS011;48969;49.934;8.596;2022-11-03T15:25:30;12.95;;;6.07;;
62880;SDS011;48969;49.934;8.596;2022-11-03T15:27:55;13.65;;;6.45;;
62880;SDS011;48969;49.934;8.596;2022-11-03T15:30:21;12.52;;;7.80;;
62880;SDS011;48969;49.934;8.596;2022-11-03T15:32:46;11.65;;;6.93;;
62880;SDS011;48969;49.934;8.596;2022-11-03T15:35:11;10.17;;;6.87;;
62880;SDS011;48969;49.934;8.596;2022-11-03T15:37:36;12.15;;;5.88;;
62880;SDS011;48969;49.934;8.596;2022-11-03T15:40:02;10.00;;;5.93;;
62880;SDS011;48969;49.934;8.596;2022-11-03T15:42:27;10.68;;;5.53;;
62880;SDS011;48969;49.934;8.596;2022-11-03T15:44:52;10.73;;;5.40;;
62880;SDS011;48969;49.934;8.596;2022-11-03T15:47:17;12.88;;;5.47;;
62880;SDS011;48969;49.934;8.596;2022-11-03T15:49:43;9.83;;;5.73;;
62880;SDS011;48969;49.934;8.596;2022-11-03T15:52:08;10.25;;;5.75;;
62880;SDS011;48969;49.934;8.596;2022-11-03T15:54:34;11.25;;;5.57;;